Kalaheo, HI (96741)

11:53 AM HST on July 24, 2017 (GMT -1000)
Wheeler Army Air Field | | Change Station
Active Advisory: Flash Flood Watch Active Notice: Flash Flood Watch

Elev 837 ft 21.48 °N, 158.04 °W | Updated 25 minutes ago

Rain
Rain
81 °F
Feels Like 85 °F
N
9
Wind Variable Wind from SE

Today
High -- | Low -- °F
--% Chance of Precip.
Yesterday
High -- | Low -- °F
Precip. -- in
Pressure 29.94 in
Visibility 10.0 miles
Clouds Scattered Clouds 1300 ft
Mostly Cloudy 2200 ft
Overcast 3100 ft
Heat Index 85 °F
Dew Point 73 °F
Humidity 79%
Rainfall 0.03 in
Snow Depth Not available.
6:07 AM 7:21 PM
Waxing Crescent, 3% visible
SPECI PHHI 242128Z AUTO 14008KT 10SM SCT013 BKN022 OVC031 27/23 A2997 RMK AO2 CIG 013V022 SLP136 $
Pressure 29.94 in
Visibility 10.0 miles
Clouds Scattered Clouds 1300 ft
Mostly Cloudy 2200 ft
Overcast 3100 ft
Heat Index 85 °F
Dew Point 73 °F
Humidity 79%
Rainfall 0.03 in
Snow Depth Not available.
6:07 AM 7:21 PM
Waxing Crescent, 3% visible
SPECI PHHI 242128Z AUTO 14008KT 10SM SCT013 BKN022 OVC031 27/23 A2997 RMK AO2 CIG 013V022 SLP136 $

Get Your Daily Forecast Email!

Thanks for signing up!

Be on the lookout for a verification email in your inbox.

You'll start receiving severe weather alerts in your inbox..

×

10-Day Weather Forecast

Almanac

Astronomy

Jul. 24, 2017 Rise Set
Actual Time
Civil Twilight
Nautical Twilight
Astronomical Twilight
Moon
Length of Visible Light
Length of Day
Tomorrow will be .
, % of the Moon is Illuminated

Today's Extremes

State Highs State Lows

Community

WunderPhotos

Category 6

Welcome to Category 6. This is the collective home for Weather Underground's featured writeups by Dr. Jeff Masters (right), Bob Henson (left), Chris Burt, and other regular contributors.

Nearby

Air Quality

  Air Quality AQ Index Pollutant
Not available.

Snow Depth

Station Depth Elevation

Earthquake Activity

City Distance Mag. Time & Date
Minimum magnitude displayed is 2.5.

Coastal Water Temperatures

Place Temperature

Stations

Nearby Weather Stations

Station Location Temp. Windchill Dew Point Humidity Wind Precip. Elev Updated Type
                   

Watches & Warnings

Flash Flood Watch
Issued: 8:29 AM HST Jul. 24, 2017 – National Weather Service

... Flash Flood Watch in effect until 6 PM HST this evening...

The National Weather Service in Honolulu has issued a

* Flash Flood Watch for Kauai and Niihau.

* Until 6 PM HST this evening

* the remnants of Fernanda are moving from east to west across
the area... bringing showers and a few thunderstorms... some of
which may contain heavy rainfall.

* Some of showers and thunderstorms could be heavy... leading to
rising streams and rivers.

Precautionary/preparedness actions...

A Flash Flood Watch means that conditions may develop that lead
to flash flooding. Flash flooding is a very dangerous situation.

You should monitor later forecasts and be prepared to take action
should flash flood warnings be issued.